This is the latest recevied weather packets stored in our database for station/object DG4MJS-10. If no packets are shown the sender has not sent any weather packets the latest 10 day(s).
| Time | Temp. | Humidity | Pressure | Rain* | Wind** | Luminosity | Snow |
|---|---|---|---|---|---|---|---|
| 1787843668 | 23.33° C | 69% | 1013.1 hPa | - | - | - | - |
| 1787842768 | 23.33° C | 70% | 1013.1 hPa | - | - | - | - |
| 1787841868 | 22.78° C | 70% | 1013.2 hPa | - | - | - | - |
| 1787840968 | 23.33° C | 70% | 1013.2 hPa | - | - | - | - |
| 1787840068 | 24.44° C | 64% | 1013.1 hPa | - | - | - | - |
| 1787839168 | 25° C | 60% | 1013.2 hPa | - | - | - | - |
| 1787838268 | 23.89° C | 67% | 1013.3 hPa | - | - | - | - |
| 1787837368 | 23.89° C | 66% | 1013.4 hPa | - | - | - | - |
| 1787836468 | 24.44° C | 61% | 1013.5 hPa | - | - | - | - |
| 1787835567 | 25.56° C | 57% | 1013.4 hPa | - | - | - | - |
| 1787834667 | 25° C | 62% | 1013.6 hPa | - | - | - | - |
| 1787833767 | 23.89° C | 67% | 1013.9 hPa | - | - | - | - |
| 1787832867 | 23.33° C | 67% | 1014 hPa | - | - | - | - |
| 1787831967 | 23.33° C | 68% | 1013.9 hPa | - | - | - | - |
| 1787831067 | 23.89° C | 64% | 1014 hPa | - | - | - | - |
| 1787830167 | 22.78° C | 69% | 1014.3 hPa | - | - | - | - |
| 1787829267 | 22.22° C | 72% | 1014.4 hPa | - | - | - | - |
| 1787828367 | 22.22° C | 71% | 1014.6 hPa | - | - | - | - |
| 1787827466 | 22.78° C | 69% | 1014.7 hPa | - | - | - | - |
| 1787826566 | 22.22° C | 69% | 1014.9 hPa | - | - | - | - |
| 1787825668 | 22.78° C | 70% | 1015 hPa | - | - | - | - |
| 1787824768 | 22.22° C | 70% | 1015 hPa | - | - | - | - |
| 1787823868 | 22.78° C | 68% | 1015.3 hPa | - | - | - | - |
| 1787822967 | 22.22° C | 70% | 1015.2 hPa | - | - | - | - |
| 1787822067 | 21.67° C | 72% | 1014.9 hPa | - | - | - | - |
* Rain since midnight (hover to see other rain measurements)
** Current wind speed in m/s (hover to see current wind gust speed)